Terminal Aerodrome Forecast
Issued by NWS

Home | Current Version | Previous Version | Text Only | Print | Product List | Glossary On
Versions: 1 2 3 4 5 6 7 8 9 10 11 12 13 14 15 16 17 18 19 20 21 22
000
FTUS44 KSJT 261700
TAFSOA
TAF
KSOA 261723Z 2618/2718 21012G18KT P6SM FEW120
     FM270000 26012G18KT P6SM SCT100
     FM271200 23010KT P6SM BKN250
     FM271500 25012G18KT P6SM SKC=

USA.gov is the U.S. government's official web portal to all federal, state and local government web resources and services.